• Join FlightAware (Why Join?)
  • Login
  • US Flag 
07:12AM EDT


 

Airport Tracker/Info


-or-


 

Live Flight TrackerFlight Track Log ✈ EJA929 ✈ 29-Sep-2013 ✈ KCHS - KHPN

Flight Track Log - Related Links

Times and Time Zones

All times are in EDT time to prevent confusion due to time zone crossing. See the EJA929 flight status page for this flight to view local times or setup timezone preferences in your user account.

Time Position Orientation Groundspeed Altitude Reporting Facility
EDT Latitude Longitude Course Direction KTS MPH feet Rate Location/Type
12:14PM 32.9797 -80.0300 17° North 189 217 4,800  Level Jacksonville Center
12:15PM 33.0542 -80.0028 17° North 223 257 7,700 2,580 Climbing Jacksonville Center
12:16PM 33.1308 -79.9756 17° North 264 304 10,000 1,680 Climbing Jacksonville Center
12:17PM 33.2197 -79.9428 17° North 300 345 11,100 1,740 Climbing Jacksonville Center
12:18PM 33.3150 -79.9147 14° North 320 368 13,500 2,340 Climbing Jacksonville Center
12:19PM 33.4125 -79.8867 14° North 348 400 15,800 2,100 Climbing Jacksonville Center
12:20PM 33.5078 -79.8611 13° North 353 406 17,800 1,800 Climbing Jacksonville Center
12:21PM 33.6075 -79.8353 12° North 353 406 19,500 1,740 Climbing Jacksonville Center
12:22PM 33.7069 -79.8067 13° North 353 406 21,300 1,800 Climbing Jacksonville Center
12:23PM 33.8083 -79.7783 13° North 360 414 23,100 1,800 Climbing Jacksonville Center
12:24PM 33.9031 -79.7222 26° Northeast 367 422 24,900 1,800 Climbing Jacksonville Center
12:25PM 33.9864 -79.6342 41° Northeast 376 433 26,700 1,740 Climbing Jacksonville Center
12:26PM 34.0694 -79.5458 41° Northeast 387 445 28,400 1,500 Climbing Jacksonville Center
12:27PM 34.1569 -79.4597 39° Northeast 397 457 29,800 1,320 Climbing Jacksonville Center
12:28PM 34.2739 -79.3364 41° Northeast 386 444 31,800 1,440 Climbing Washington Center
12:29PM 34.3814 -79.2281 40° Northeast 405 466 33,500 1,500 Climbing Washington Center
12:30PM 34.4697 -79.1364 41° Northeast 411 473 34,900 1,500 Climbing Washington Center
12:31PM 34.5642 -79.0497 37° Northeast 417 480 36,600 1,800 Climbing Washington Center
12:32PM 34.6564 -78.9625 38° Northeast 417 480 38,500 1,800 Climbing Washington Center
12:33PM 34.7464 -78.8781 38° Northeast 417 480 40,200 1,200 Climbing Washington Center
12:34PM 34.8383 -78.7931 37° Northeast 417 480 41,000 360 Climbing Washington Center
12:35PM 34.9369 -78.7006 38° Northeast 427 491 41,000  Level Washington Center
12:36PM 35.0331 -78.6081 38° Northeast 427 491 41,000  Level Washington Center
12:37PM 35.1333 -78.5153 37° Northeast 433 498 41,000  Level Washington Center
12:38PM 35.2233 -78.4269 39° Northeast 446 513 41,000  Level Washington Center
12:39PM 35.3214 -78.3336 38° Northeast 451 519 41,000  Level Washington Center
12:40PM 35.4217 -78.2378 38° Northeast 451 519 41,000  Level Washington Center
12:41PM 35.5217 -78.1414 38° Northeast 451 519 41,000  Level Washington Center
12:42PM 35.6239 -78.0450 37° Northeast 451 519 41,000  Level Washington Center
12:43PM 35.7217 -77.9508 38° Northeast 451 519 41,000  Level Washington Center
12:44PM 35.8217 -77.8564 37° Northeast 451 519 41,000  Level Washington Center
12:45PM 35.9194 -77.7592 39° Northeast 451 519 41,000  Level Washington Center
12:46PM 36.0192 -77.6619 38° Northeast 451 519 41,000  Level Washington Center
12:47PM 36.1147 -77.5614 40° Northeast 451 519 41,000  Level Washington Center
12:48PM 36.2103 -77.4661 39° Northeast 451 519 41,000  Level Washington Center
12:49PM 36.3058 -77.3600 42° Northeast 451 519 41,000  Level Washington Center
12:50PM 36.4031 -77.2592 40° Northeast 451 519 41,000  Level Washington Center
12:51PM 36.4983 -77.1553 41° Northeast 451 519 41,000  Level Washington Center
12:52PM 36.5978 -77.0536 39° Northeast 451 519 41,000  Level Washington Center
12:53PM 36.6950 -76.9467 41° Northeast 456 525 41,000  Level Washington Center
12:54PM 36.7922 -76.8447 40° Northeast 456 525 41,000  Level Washington Center
12:55PM 36.8892 -76.7397 41° Northeast 456 525 41,000  Level Washington Center
12:56PM 36.9861 -76.6344 41° Northeast 461 531 41,000  Level Washington Center
12:57PM 37.0808 -76.5317 41° Northeast 461 531 41,000  Level Washington Center
12:58PM 37.1881 -76.4131 41° Northeast 461 531 41,000  Level Washington Center
12:59PM 37.2867 -76.3097 40° Northeast 466 536 41,000  Level Washington Center
01:00PM 37.3853 -76.2033 41° Northeast 466 536 41,000  Level Washington Center
01:01PM 37.4775 -76.1125 38° Northeast 466 536 41,000  Level Washington Center
01:02PM 37.5739 -76.0058 41° Northeast 466 536 41,000  Level Washington Center
01:03PM 37.6722 -75.8961 41° Northeast 466 536 41,000  Level Washington Center
01:04PM 37.7706 -75.7889 41° Northeast 466 536 41,000  Level Washington Center
01:05PM 37.8667 -75.6811 42° Northeast 466 536 41,000  Level Washington Center
01:06PM 37.9644 -75.5761 40° Northeast 466 536 41,000  Level Washington Center
01:07PM 38.0625 -75.4706 40° Northeast 466 536 41,000 -60 Level Washington Center
01:08PM 38.1750 -75.3911 29° Northeast 461 531 40,900 -660 Descending Washington Center
01:09PM 38.2894 -75.3219 25° Northeast 454 522 39,700 -960 Descending Washington Center
01:10PM 38.4042 -75.2472 27° Northeast 454 522 39,000 -360 Descending Washington Center
01:11PM 38.5206 -75.1697 28° Northeast 459 528 39,000  Level Washington Center
01:12PM 38.6369 -75.0919 28° Northeast 459 528 39,000  Level Washington Center
01:13PM 38.7556 -75.0192 26° Northeast 464 534 39,000  Level Washington Center
01:14PM 38.8719 -74.9464 26° Northeast 464 534 39,000 -480 Level Washington Center
01:15PM 38.9883 -74.8733 26° Northeast 464 534 38,100 -1,800 Descending Washington Center
01:16PM 39.1044 -74.7892 29° Northeast 464 534 35,500 -2,760 Descending Washington Center
01:17PM 39.2181 -74.6753 38° Northeast 495 570 32,700 -2,880 Descending Washington Center
01:20PM 39.4889 -74.3917 39° Northeast 526 605 25,900 -2,640 Descending New York Center
01:21PM 39.5944 -74.2811 39° Northeast 508 585 23,900 -1,440 Descending New York Center
01:22PM 39.6997 -74.1706 39° Northeast 498 573 23,100 -1,320 Descending New York Center
01:23PM 39.8008 -74.0644 39° Northeast 476 548 21,300 -1,740 Descending New York Center
01:25PM 40.0289 -73.8186 40° Northeast 450 518 17,400 -1,380 Descending Boston Center
01:26PM 40.1233 -73.7178 39° Northeast 443 510 16,900 -300 Descending Boston Center
01:27PM 40.2192 -73.6164 39° Northeast 432 497 16,900  Level Boston Center
01:28PM 40.3072 -73.5242 39° Northeast 405 466 16,900  Level Boston Center
01:29PM 40.3883 -73.4500 35° Northeast 358 412 16,900  Level Boston Center
01:30PM 40.4819 -73.4164 15° North 350 403 16,900  Level Boston Center
01:31PM 40.5981 -73.3753 15° North 358 412 16,900 -360 Level Boston Center
01:32PM 40.6939 -73.3425 15° North 354 407 16,200 -900 Descending Boston Center
01:33PM 40.7811 -73.3067 17° North 336 387 15,100 -1,260 Descending Boston Center
01:34PM 40.8500 -73.2000 49° Northeast 302 348 13,500 -1,380 Descending New York TRACON
01:35PM 40.8833 -73.1000 66° East 322 371 12,100 -1,380 Descending New York TRACON
01:36PM 40.9333 -73.0167 52° Northeast 287 330 10,700 -1,740 Descending New York TRACON
01:37PM 41.0167 -73.0500 343° North 296 341 8,700 -1,860 Descending New York TRACON
01:38PM 41.0500 -73.1333 298° West 278 320 7,000 -1,680 Descending New York TRACON
01:39PM 41.0833 -73.2333 294° West 271 312 5,400 -1,260 Descending New York TRACON
01:40PM 41.1167 -73.3167 298° West 263 303 4,500 -720 Descending New York TRACON
01:41PM 41.1333 -73.4000 285° West 258 297 4,000 -780 Descending New York TRACON
01:42PM 41.1667 -73.4833 298° West 252 290 3,000 -540 Descending New York TRACON
01:44PM 41.2000 -73.5833 294° West 249 287 2,900 -360 Descending New York TRACON
01:45PM 41.2000 -73.6500 270° West 193 222 2,300 -480 Descending New York TRACON
01:46PM 41.1833 -73.7167 252° West 189 217 2,000 -180 Descending New York TRACON
01:47PM 41.1500 -73.7667 228° Southwest 182 209 2,000 -360 Level New York TRACON
01:48PM 41.1167 -73.7333 143° Southeast 151 174 1,300 -720 Descending New York TRACON
01:49PM 41.0833 -73.7167 159° South 125 144 600 -720 Descending New York TRACON
01:51PM 41.0667 -73.7000 153° Southeast  Level FlightAware Approximate
01:58PM 41.0669 -73.7076 153° Southeast  Level Estimated